createdAt,value
2023-03-26T00:00:29.649Z,57.98
2023-03-26T00:01:36.408Z,57.65
2023-03-26T00:02:39.851Z,57.68
2023-03-26T00:03:44.999Z,57.60
2023-03-26T00:04:47.279Z,57.73
2023-03-26T00:05:49.884Z,57.63
2023-03-26T00:06:52.206Z,57.96
2023-03-26T00:07:54.304Z,57.45
2023-03-26T00:08:57.712Z,57.31
2023-03-26T00:09:59.812Z,57.19
2023-03-26T00:11:03.119Z,57.31
2023-03-26T00:12:05.321Z,57.33
2023-03-26T00:13:08.225Z,57.48
2023-03-26T00:14:14.301Z,57.79
2023-03-26T00:15:16.663Z,57.46
2023-03-26T00:16:19.994Z,57.25
2023-03-26T00:17:22.637Z,57.41
2023-03-26T00:18:30.198Z,57.29
2023-03-26T00:19:32.390Z,56.88
2023-03-26T00:20:34.597Z,56.91
2023-03-26T00:21:37.331Z,56.93
2023-03-26T00:22:40.476Z,56.89
2023-03-26T00:23:43.283Z,57.14
2023-03-26T00:24:48.439Z,57.19
2023-03-26T00:25:51.394Z,57.04
2023-03-26T00:26:54.001Z,57.05
2023-03-26T00:27:56.186Z,57.03
2023-03-26T00:29:00.252Z,56.64
2023-03-26T00:30:04.162Z,56.33
2023-03-26T00:31:08.289Z,56.70
2023-03-26T00:32:10.408Z,56.37
2023-03-26T00:33:12.586Z,56.50
2023-03-26T00:34:18.608Z,56.70
2023-03-26T00:35:22.494Z,56.63
2023-03-26T00:36:26.772Z,56.77
2023-03-26T00:37:30.347Z,56.47
2023-03-26T00:38:38.702Z,56.68
2023-03-26T00:39:42.819Z,56.96
2023-03-26T00:40:48.052Z,56.73
2023-03-26T00:41:54.450Z,56.38
2023-03-26T00:42:57.115Z,56.31
2023-03-26T00:44:00.153Z,56.15
2023-03-26T00:45:02.364Z,56.00
2023-03-26T00:46:05.103Z,56.28
2023-03-26T00:47:07.872Z,55.89
2023-03-26T00:48:09.981Z,55.85
2023-03-26T00:49:14.881Z,55.80
2023-03-26T00:50:17.093Z,55.90
2023-03-26T00:51:20.752Z,55.94
2023-03-26T00:52:23.559Z,56.11
2023-03-26T00:53:25.748Z,56.13
2023-03-26T00:54:28.542Z,56.29
2023-03-26T00:55:30.618Z,56.40
2023-03-26T00:56:32.763Z,56.11
2023-03-26T00:57:37.432Z,55.94
2023-03-26T00:58:39.874Z,55.89
2023-03-26T00:59:42.313Z,56.43
2023-03-26T01:00:57.463Z,56.91
2023-03-26T01:02:00.368Z,57.12
2023-03-26T01:03:04.698Z,57.01
2023-03-26T01:04:31.827Z,57.54
2023-03-26T01:05:34.139Z,57.66
2023-03-26T01:06:41.466Z,58.07
2023-03-26T01:07:44.742Z,58.01
2023-03-26T01:08:49.007Z,58.27
2023-03-26T01:09:51.576Z,58.56
2023-03-26T01:11:02.873Z,58.86
2023-03-26T01:12:07.517Z,59.58
2023-03-26T01:13:10.070Z,59.14
2023-03-26T01:14:16.382Z,59.29
2023-03-26T01:15:18.673Z,59.78
2023-03-26T01:16:42.890Z,60.29
2023-03-26T01:17:45.033Z,60.60
2023-03-26T01:18:48.784Z,61.12
2023-03-26T01:20:12.448Z,61.53
2023-03-26T01:21:22.721Z,61.72
2023-03-26T01:22:26.688Z,62.16
2023-03-26T01:23:49.046Z,62.29
2023-03-26T01:24:56.479Z,62.07
2023-03-26T01:26:12.211Z,62.01
2023-03-26T01:27:24.539Z,62.12
2023-03-26T01:28:29.143Z,62.47
2023-03-26T01:29:49.455Z,63.27
2023-03-26T01:31:17.328Z,62.92
2023-03-26T01:32:24.759Z,64.15
2023-03-26T01:33:45.570Z,64.08
2023-03-26T01:35:13.198Z,63.59
2023-03-26T01:36:42.736Z,63.53
2023-03-26T01:37:52.615Z,64.01
2023-03-26T01:39:03.747Z,64.96
2023-03-26T01:40:18.138Z,65.30
2023-03-26T01:41:37.517Z,65.11
2023-03-26T01:42:52.560Z,63.98
2023-03-26T01:44:00.645Z,63.80
2023-03-26T01:45:16.667Z,63.57
2023-03-26T01:46:19.496Z,63.14
2023-03-26T01:47:22.244Z,63.16
2023-03-26T01:48:50.835Z,63.16
2023-03-26T01:49:52.965Z,63.14
2023-03-26T01:50:56.409Z,63.56
2023-03-26T01:52:00.697Z,64.46
2023-03-26T01:53:02.832Z,64.76
2023-03-26T01:54:07.462Z,64.89
2023-03-26T01:55:11.797Z,65.19
2023-03-26T01:56:46.116Z,64.87
2023-03-26T01:58:08.175Z,65.31
2023-03-26T01:59:29.008Z,64.83
2023-03-26T02:00:34.155Z,65.06
2023-03-26T02:01:57.432Z,65.50
2023-03-26T02:03:18.082Z,65.33
2023-03-26T02:04:45.920Z,65.64
2023-03-26T02:06:20.238Z,65.84
2023-03-26T02:07:51.042Z,66.55
2023-03-26T02:09:03.154Z,66.08
2023-03-26T02:10:11.372Z,66.62
2023-03-26T02:11:16.034Z,67.06
2023-03-26T02:12:19.960Z,67.23
2023-03-26T02:13:22.250Z,67.04
2023-03-26T02:14:24.857Z,67.31
2023-03-26T02:15:27.154Z,67.25
2023-03-26T02:16:29.271Z,67.21
2023-03-26T02:17:33.160Z,67.57
2023-03-26T02:18:41.447Z,67.58
2023-03-26T02:19:43.602Z,68.10
2023-03-26T02:20:45.699Z,68.23
2023-03-26T02:21:51.593Z,68.39
2023-03-26T02:22:53.831Z,68.56
2023-03-26T02:24:04.087Z,67.85
2023-03-26T02:25:11.228Z,68.27
2023-03-26T02:26:15.818Z,68.01
2023-03-26T02:27:18.472Z,68.08
2023-03-26T02:28:20.651Z,68.60
2023-03-26T02:29:22.845Z,68.21
2023-03-26T02:30:25.883Z,67.81
2023-03-26T02:31:28.150Z,67.89
2023-03-26T02:32:30.288Z,67.31
2023-03-26T02:33:32.609Z,67.16
2023-03-26T02:34:34.738Z,66.81
2023-03-26T02:35:37.051Z,67.78
2023-03-26T02:36:39.392Z,67.56
2023-03-26T02:37:42.253Z,67.64
2023-03-26T02:38:44.387Z,67.50
2023-03-26T02:39:46.964Z,66.86
2023-03-26T02:40:49.069Z,66.95
2023-03-26T02:41:51.142Z,67.18
2023-03-26T02:42:53.254Z,68.35
2023-03-26T02:43:55.407Z,67.27
2023-03-26T02:44:57.552Z,67.49
2023-03-26T02:45:59.860Z,68.49
2023-03-26T02:47:02.052Z,68.47
2023-03-26T02:48:04.517Z,69.09
2023-03-26T02:49:06.681Z,69.25
2023-03-26T02:50:09.699Z,68.73
2023-03-26T02:51:11.814Z,68.42
2023-03-26T02:52:17.131Z,68.44
2023-03-26T02:53:19.390Z,68.11
2023-03-26T02:54:22.095Z,68.64
2023-03-26T02:55:24.228Z,69.44
2023-03-26T02:56:26.492Z,69.29
2023-03-26T02:57:28.835Z,69.58
2023-03-26T02:58:30.999Z,69.32
2023-03-26T02:59:33.145Z,70.16
2023-03-26T03:00:35.673Z,70.55
2023-03-26T03:01:42.839Z,69.73
2023-03-26T03:02:47.889Z,69.92
2023-03-26T03:03:50.418Z,69.92
2023-03-26T03:04:52.497Z,70.19
2023-03-26T03:05:55.326Z,70.43
2023-03-26T03:06:57.778Z,70.53
2023-03-26T03:08:00.316Z,70.52
2023-03-26T03:09:02.876Z,70.95
2023-03-26T03:10:08.414Z,71.08
2023-03-26T03:11:16.180Z,70.44
2023-03-26T03:12:18.320Z,70.67
2023-03-26T03:13:20.422Z,70.88
2023-03-26T03:14:22.524Z,71.68
2023-03-26T03:15:25.015Z,71.92
2023-03-26T03:16:27.588Z,72.23
2023-03-26T03:17:29.762Z,71.93
2023-03-26T03:18:31.844Z,71.35
2023-03-26T03:19:34.067Z,71.50
2023-03-26T03:20:36.282Z,71.71
2023-03-26T03:21:38.632Z,72.46
2023-03-26T03:22:41.257Z,72.20
2023-03-26T03:23:43.331Z,72.69
2023-03-26T03:24:45.854Z,72.47
2023-03-26T03:25:49.097Z,73.19
2023-03-26T03:26:55.072Z,73.44
2023-03-26T03:27:57.154Z,72.86
2023-03-26T03:28:59.589Z,73.87
2023-03-26T03:30:01.700Z,72.76
2023-03-26T03:31:05.238Z,72.21
2023-03-26T03:32:07.396Z,72.54
2023-03-26T03:33:09.560Z,73.64
2023-03-26T03:34:11.663Z,73.17
2023-03-26T03:35:13.823Z,72.07
2023-03-26T03:36:20.270Z,71.44
2023-03-26T03:37:23.457Z,71.01
2023-03-26T03:38:25.580Z,72.82
2023-03-26T03:39:27.675Z,71.12
2023-03-26T03:40:29.790Z,72.47
2023-03-26T03:41:31.956Z,71.62
2023-03-26T03:42:34.047Z,71.78
2023-03-26T03:43:36.214Z,71.53
2023-03-26T03:44:38.390Z,71.21
2023-03-26T03:45:40.698Z,71.71
2023-03-26T03:46:42.890Z,73.20
2023-03-26T03:47:45.080Z,72.63
2023-03-26T03:48:50.398Z,71.78
2023-03-26T03:49:53.719Z,71.69
2023-03-26T03:50:56.571Z,71.97
2023-03-26T03:51:58.703Z,71.75
2023-03-26T03:53:01.147Z,72.32
2023-03-26T03:54:03.726Z,72.50
2023-03-26T03:55:06.271Z,71.17
2023-03-26T03:56:14.675Z,71.29
2023-03-26T03:57:18.878Z,71.37
2023-03-26T03:58:24.949Z,72.02
2023-03-26T03:59:27.079Z,71.87
2023-03-26T04:00:30.711Z,70.97
2023-03-26T04:01:32.925Z,71.25
2023-03-26T04:02:35.412Z,70.97
2023-03-26T04:03:38.975Z,70.89
2023-03-26T04:04:41.401Z,71.11
2023-03-26T04:05:49.419Z,69.65
2023-03-26T04:06:52.432Z,69.08
2023-03-26T04:07:54.585Z,69.14
2023-03-26T04:08:57.123Z,69.03
2023-03-26T04:10:00.272Z,69.29
2023-03-26T04:11:02.578Z,68.85
2023-03-26T04:12:04.748Z,68.34
2023-03-26T04:13:06.831Z,67.76
2023-03-26T04:14:10.199Z,67.58
2023-03-26T04:15:12.357Z,67.37
2023-03-26T04:16:33.194Z,67.23
2023-03-26T04:17:42.400Z,67.19
2023-03-26T04:18:46.403Z,66.59
2023-03-26T04:19:50.411Z,66.13
2023-03-26T04:20:52.571Z,66.38
2023-03-26T04:21:55.405Z,66.21
2023-03-26T04:22:58.051Z,66.49
2023-03-26T04:24:02.163Z,66.39
2023-03-26T04:25:05.265Z,66.54
2023-03-26T04:26:10.494Z,66.50
2023-03-26T04:27:17.887Z,66.38
2023-03-26T04:28:32.080Z,67.28
2023-03-26T04:29:44.155Z,65.64
2023-03-26T04:30:46.270Z,64.68
2023-03-26T04:31:50.377Z,65.69
2023-03-26T04:32:53.136Z,65.24
2023-03-26T04:34:18.411Z,65.58
2023-03-26T04:35:20.706Z,65.94
2023-03-26T04:36:27.289Z,66.22
2023-03-26T04:37:34.984Z,66.20
2023-03-26T04:38:41.561Z,66.31
2023-03-26T04:39:44.998Z,66.55
2023-03-26T04:40:47.503Z,66.85
2023-03-26T04:41:49.663Z,67.02
2023-03-26T04:42:54.721Z,67.30
2023-03-26T04:43:56.871Z,67.25
2023-03-26T04:44:59.905Z,67.22
2023-03-26T04:46:03.414Z,67.45
2023-03-26T04:47:05.531Z,67.47
2023-03-26T04:48:08.973Z,67.00
2023-03-26T04:49:11.068Z,67.10
2023-03-26T04:50:13.188Z,66.88
2023-03-26T04:51:19.234Z,66.65
2023-03-26T04:52:21.391Z,66.38
2023-03-26T04:53:24.285Z,65.95
2023-03-26T04:54:26.660Z,65.96
2023-03-26T04:55:39.431Z,65.64
2023-03-26T04:56:53.214Z,65.47
2023-03-26T04:57:57.292Z,65.43
2023-03-26T04:59:01.539Z,65.59
2023-03-26T05:00:15.071Z,65.52
2023-03-26T05:01:17.627Z,65.42
2023-03-26T05:03:22.730Z,64.87
2023-03-26T05:04:26.681Z,64.63
2023-03-26T05:05:29.358Z,64.27
2023-03-26T05:06:34.317Z,64.21
2023-03-26T05:07:36.910Z,63.91
2023-03-26T05:08:39.117Z,63.50
2023-03-26T05:09:41.504Z,63.22
2023-03-26T05:10:43.615Z,63.17
2023-03-26T05:11:45.749Z,62.50
2023-03-26T05:12:48.268Z,62.49
2023-03-26T05:13:50.498Z,62.32
2023-03-26T05:14:52.649Z,62.11
2023-03-26T05:15:55.673Z,61.65
2023-03-26T05:16:57.780Z,61.44
2023-03-26T05:18:00.062Z,61.10
2023-03-26T05:19:02.486Z,60.77
2023-03-26T05:20:05.182Z,60.64
2023-03-26T05:21:07.444Z,60.83
2023-03-26T05:22:09.557Z,60.69
2023-03-26T05:23:11.799Z,60.34
2023-03-26T05:24:13.948Z,60.55
2023-03-26T05:25:17.598Z,60.12
2023-03-26T05:26:19.749Z,60.04
2023-03-26T05:27:21.919Z,60.06
2023-03-26T05:28:25.501Z,59.63
2023-03-26T05:29:27.687Z,59.61
2023-03-26T05:30:29.920Z,59.43
2023-03-26T05:31:32.095Z,59.34
2023-03-26T05:32:34.848Z,58.81
2023-03-26T05:33:37.353Z,59.02
2023-03-26T05:34:40.394Z,58.68
2023-03-26T05:35:43.480Z,58.64
2023-03-26T05:36:45.664Z,58.15
2023-03-26T05:37:49.861Z,58.25
2023-03-26T05:38:52.396Z,57.99
2023-03-26T05:39:55.067Z,57.57
2023-03-26T05:41:01.306Z,57.74
2023-03-26T05:42:03.553Z,57.91
2023-03-26T05:43:06.167Z,57.74
2023-03-26T05:44:08.328Z,57.81
2023-03-26T05:45:12.075Z,57.33
2023-03-26T05:46:14.756Z,57.83
2023-03-26T05:47:17.052Z,57.13
2023-03-26T05:48:19.508Z,57.89
2023-03-26T05:49:21.619Z,57.64
2023-03-26T05:50:23.719Z,55.78
2023-03-26T05:51:25.982Z,56.31
2023-03-26T05:52:28.432Z,57.16
2023-03-26T05:53:30.892Z,55.89
2023-03-26T05:54:33.073Z,55.18
2023-03-26T05:55:35.224Z,55.71
2023-03-26T05:56:37.400Z,56.52
2023-03-26T05:57:40.346Z,55.45
2023-03-26T05:58:42.503Z,54.35
2023-03-26T05:59:44.862Z,53.44
2023-03-26T06:00:48.643Z,52.94
2023-03-26T06:01:51.081Z,53.93
2023-03-26T06:02:56.629Z,52.71
2023-03-26T06:03:59.562Z,51.80
2023-03-26T06:05:02.858Z,51.76
2023-03-26T06:06:16.301Z,51.54
2023-03-26T06:07:19.868Z,51.02
2023-03-26T06:08:22.131Z,50.98
2023-03-26T06:09:24.296Z,50.71
2023-03-26T06:10:26.435Z,50.64
2023-03-26T06:11:28.636Z,50.12
2023-03-26T06:12:30.804Z,49.86
2023-03-26T06:13:33.007Z,50.26
2023-03-26T06:14:35.556Z,51.02
2023-03-26T06:15:37.998Z,51.00
2023-03-26T06:16:40.194Z,51.58
2023-03-26T06:17:42.367Z,50.71
2023-03-26T06:18:44.896Z,50.27
2023-03-26T06:19:47.964Z,49.00
2023-03-26T06:20:51.146Z,48.93
2023-03-26T06:21:53.381Z,48.69
2023-03-26T06:22:55.573Z,48.72
2023-03-26T06:23:57.716Z,48.41
2023-03-26T06:24:59.849Z,48.11
2023-03-26T06:26:01.971Z,47.89
2023-03-26T06:27:04.088Z,47.87
2023-03-26T06:28:06.660Z,47.86
2023-03-26T06:29:09.199Z,47.73
2023-03-26T06:30:11.836Z,47.25
2023-03-26T06:31:14.047Z,47.17
2023-03-26T06:32:20.001Z,47.27
2023-03-26T06:33:24.525Z,47.42
2023-03-26T06:34:27.078Z,46.82
2023-03-26T06:35:30.033Z,46.69
2023-03-26T06:36:32.129Z,46.17
2023-03-26T06:37:34.355Z,46.23
2023-03-26T06:38:36.597Z,46.98
2023-03-26T06:39:38.780Z,47.29
2023-03-26T06:40:41.002Z,47.32
2023-03-26T06:41:43.176Z,47.58
2023-03-26T06:43:10.087Z,47.97
2023-03-26T06:44:07.930Z,47.84
2023-03-26T06:45:10.441Z,47.18
2023-03-26T06:46:13.262Z,47.02
2023-03-26T06:47:15.644Z,46.10
2023-03-26T06:48:17.758Z,46.04
2023-03-26T06:49:20.920Z,45.53
2023-03-26T06:50:23.053Z,45.47
2023-03-26T06:51:25.362Z,45.22
2023-03-26T06:52:28.621Z,44.80
2023-03-26T06:53:30.794Z,44.06
2023-03-26T06:54:33.021Z,44.48
2023-03-26T06:55:35.208Z,44.49
2023-03-26T06:56:37.354Z,44.59
2023-03-26T06:57:39.470Z,44.93
2023-03-26T06:58:41.577Z,44.89
2023-03-26T06:59:43.761Z,45.27
2023-03-26T07:00:46.329Z,45.58
2023-03-26T07:01:48.604Z,46.15
2023-03-26T07:02:50.968Z,46.03
2023-03-26T07:03:53.083Z,45.38
2023-03-26T07:04:55.485Z,45.43
2023-03-26T07:05:57.619Z,44.59
2023-03-26T07:06:59.751Z,44.10
2023-03-26T07:08:03.131Z,43.86
2023-03-26T07:09:05.258Z,44.17
2023-03-26T07:10:08.112Z,44.13
2023-03-26T07:11:10.272Z,44.21
2023-03-26T07:12:12.410Z,44.16
2023-03-26T07:13:15.517Z,44.36
2023-03-26T07:14:17.653Z,44.42
2023-03-26T07:15:19.810Z,44.37
2023-03-26T07:16:22.624Z,44.04
2023-03-26T07:17:24.872Z,43.79
2023-03-26T07:18:27.079Z,43.09
2023-03-26T07:19:29.184Z,42.78
2023-03-26T07:20:31.542Z,42.66
2023-03-26T07:21:34.048Z,42.92
2023-03-26T07:22:36.474Z,42.92
2023-03-26T07:23:38.874Z,42.79
2023-03-26T07:24:41.341Z,42.70
2023-03-26T07:25:43.801Z,42.59
2023-03-26T07:27:00.862Z,42.12
2023-03-26T07:28:12.361Z,42.31
2023-03-26T07:29:45.006Z,42.07
2023-03-26T07:31:05.992Z,41.99
2023-03-26T07:32:20.330Z,41.61
2023-03-26T07:33:34.537Z,41.09
2023-03-26T07:34:55.874Z,42.01
2023-03-26T07:36:06.015Z,40.81
2023-03-26T07:37:14.114Z,40.82
2023-03-26T07:38:35.397Z,40.55
2023-03-26T07:39:52.678Z,40.10
2023-03-26T07:41:16.045Z,40.13
2023-03-26T07:42:36.713Z,39.78
2023-03-26T07:43:57.513Z,39.77
2023-03-26T07:45:20.066Z,39.54
2023-03-26T07:46:28.538Z,39.09
2023-03-26T07:47:34.145Z,39.34
2023-03-26T07:48:41.831Z,38.91
2023-03-26T07:49:44.812Z,39.09
2023-03-26T07:50:48.474Z,38.74
2023-03-26T07:51:50.922Z,38.20
2023-03-26T07:52:53.367Z,38.54
2023-03-26T07:53:56.316Z,37.51
2023-03-26T07:54:58.676Z,38.00
2023-03-26T07:56:17.903Z,37.65
2023-03-26T07:57:45.530Z,38.31
2023-03-26T07:59:21.602Z,38.08
2023-03-26T08:00:23.793Z,37.84
2023-03-26T08:01:34.633Z,37.15
2023-03-26T08:02:52.551Z,36.57
2023-03-26T08:04:29.795Z,36.67
2023-03-26T08:05:35.406Z,39.64
2023-03-26T08:06:39.173Z,40.22
2023-03-26T08:08:07.555Z,41.01
2023-03-26T08:09:17.923Z,41.92
2023-03-26T08:10:55.543Z,41.90
2023-03-26T08:12:04.111Z,43.03
2023-03-26T08:13:21.312Z,42.99
2023-03-26T08:14:26.665Z,42.17
2023-03-26T08:15:33.093Z,42.94
2023-03-26T08:17:13.805Z,41.62
2023-03-26T08:18:27.779Z,40.31
2023-03-26T08:20:07.019Z,39.50
2023-03-26T08:21:17.090Z,39.41
2023-03-26T08:22:41.380Z,38.75
2023-03-26T08:24:03.489Z,38.84
2023-03-26T08:25:33.324Z,39.32
2023-03-26T08:27:02.651Z,39.41
2023-03-26T08:28:18.620Z,39.85
2023-03-26T08:29:36.548Z,39.45
2023-03-26T08:30:38.841Z,39.70
2023-03-26T08:31:42.728Z,39.40
2023-03-26T08:33:17.961Z,38.79
2023-03-26T08:34:20.392Z,39.71
2023-03-26T08:35:23.541Z,39.18
2023-03-26T08:36:26.757Z,39.35
2023-03-26T08:37:29.311Z,39.27
2023-03-26T08:38:31.478Z,38.94
2023-03-26T08:39:33.616Z,39.16
2023-03-26T08:40:47.803Z,39.19
2023-03-26T08:42:14.190Z,39.29
2023-03-26T08:43:38.347Z,39.24
2023-03-26T08:45:10.494Z,39.52
2023-03-26T08:46:46.378Z,40.43
2023-03-26T08:48:08.533Z,40.46
2023-03-26T08:49:38.294Z,40.43
2023-03-26T08:51:22.152Z,39.53
2023-03-26T08:52:50.483Z,39.23
2023-03-26T08:54:16.266Z,39.82
2023-03-26T08:55:24.408Z,39.64
2023-03-26T08:56:52.122Z,39.84
2023-03-26T08:58:14.586Z,39.54
2023-03-26T08:59:38.047Z,39.70
2023-03-26T09:00:58.708Z,39.42
2023-03-26T09:02:16.089Z,39.52
2023-03-26T09:03:28.023Z,39.16
2023-03-26T09:04:35.737Z,39.05
2023-03-26T09:05:40.503Z,38.40
2023-03-26T09:07:20.076Z,38.28
2023-03-26T09:08:53.751Z,37.98
2023-03-26T09:10:05.514Z,35.35
2023-03-26T09:11:49.003Z,34.93
2023-03-26T09:13:36.157Z,35.77
2023-03-26T09:14:56.716Z,35.10
2023-03-26T09:16:26.785Z,35.97
2023-03-26T09:17:31.976Z,36.16
2023-03-26T09:19:07.865Z,36.46
2023-03-26T09:20:43.873Z,36.58
2023-03-26T09:21:57.719Z,36.95
2023-03-26T09:23:14.959Z,37.27
2023-03-26T09:24:37.732Z,37.91
2023-03-26T09:25:53.905Z,38.27
2023-03-26T09:27:11.372Z,38.01
2023-03-26T09:28:32.072Z,38.21
2023-03-26T09:29:46.308Z,38.20
2023-03-26T09:31:07.034Z,37.48
2023-03-26T09:32:41.130Z,37.55
2023-03-26T09:34:00.411Z,36.84
2023-03-26T09:35:27.439Z,37.67
2023-03-26T09:36:50.723Z,37.90
2023-03-26T09:38:01.949Z,38.11
2023-03-26T09:39:47.685Z,37.85
2023-03-26T09:40:53.305Z,38.32
2023-03-26T09:42:20.830Z,37.79
2023-03-26T09:43:31.792Z,37.69
2023-03-26T09:44:40.810Z,36.87
2023-03-26T09:46:06.763Z,35.40
2023-03-26T09:47:14.908Z,34.83
2023-03-26T09:48:47.445Z,34.97
2023-03-26T09:50:01.503Z,34.09
2023-03-26T09:51:29.899Z,33.68
2023-03-26T09:52:42.499Z,32.97
2023-03-26T09:53:47.383Z,33.83
2023-03-26T09:55:05.302Z,34.50
2023-03-26T09:56:20.018Z,33.41
2023-03-26T09:57:29.623Z,32.04
2023-03-26T09:59:03.566Z,32.75
2023-03-26T10:00:28.122Z,32.28
2023-03-26T10:01:41.972Z,31.11
2023-03-26T10:03:08.301Z,29.96
2023-03-26T10:04:41.329Z,28.42
2023-03-26T10:05:49.144Z,28.38
2023-03-26T10:07:03.345Z,29.86
2023-03-26T10:08:25.048Z,29.49
2023-03-26T10:09:51.127Z,28.98
2023-03-26T10:11:03.188Z,30.14
2023-03-26T10:12:05.345Z,28.60
2023-03-26T10:13:14.904Z,28.49
2023-03-26T10:14:29.327Z,28.17
2023-03-26T10:15:36.636Z,28.94
2023-03-26T10:16:50.811Z,29.50
2023-03-26T10:18:27.428Z,31.42
2023-03-26T10:19:49.596Z,29.96
2023-03-26T10:21:04.846Z,31.25
2023-03-26T10:22:10.679Z,31.48
2023-03-26T10:23:37.812Z,32.59
2023-03-26T10:24:53.747Z,32.62
2023-03-26T10:26:27.895Z,32.56
2023-03-26T10:27:41.650Z,34.14
2023-03-26T10:29:08.484Z,34.79
2023-03-26T10:30:36.408Z,36.32
2023-03-26T10:31:56.097Z,36.29
2023-03-26T10:33:01.339Z,37.35
2023-03-26T10:34:39.814Z,37.72
2023-03-26T10:36:01.232Z,37.95
2023-03-26T10:37:26.262Z,38.55
2023-03-26T10:38:46.651Z,41.88
2023-03-26T10:40:13.409Z,45.24
2023-03-26T10:41:38.948Z,46.99
2023-03-26T10:42:49.860Z,48.29
2023-03-26T10:44:07.399Z,49.74
2023-03-26T10:45:25.028Z,51.72
2023-03-26T10:46:54.713Z,52.30
2023-03-26T10:47:59.565Z,51.70
2023-03-26T10:49:07.852Z,51.59
2023-03-26T10:50:28.437Z,50.50
2023-03-26T10:51:36.446Z,49.44
2023-03-26T10:52:43.113Z,47.57
2023-03-26T10:53:55.199Z,45.92
2023-03-26T10:55:12.084Z,42.93
2023-03-26T10:56:36.361Z,39.77
2023-03-26T10:57:43.114Z,36.73
2023-03-26T10:58:49.698Z,39.22
2023-03-26T10:59:55.992Z,39.31
2023-03-26T11:01:04.064Z,38.81
2023-03-26T11:02:21.315Z,39.51
2023-03-26T11:03:54.897Z,39.79
2023-03-26T11:05:29.175Z,36.54
2023-03-26T11:06:34.574Z,36.14
2023-03-26T11:07:43.181Z,35.99
2023-03-26T11:09:20.789Z,37.01
2023-03-26T11:10:40.136Z,37.65
2023-03-26T11:12:25.581Z,38.69
2023-03-26T11:13:38.935Z,37.54
2023-03-26T11:14:53.716Z,37.82
2023-03-26T11:16:05.405Z,39.60
2023-03-26T11:17:39.374Z,38.96
2023-03-26T11:19:01.952Z,39.27
2023-03-26T11:20:22.480Z,38.96
2023-03-26T11:21:56.750Z,38.90
2023-03-26T11:23:17.147Z,38.55
2023-03-26T11:24:22.385Z,38.59
2023-03-26T11:25:49.412Z,38.63
2023-03-26T11:26:56.184Z,37.79
2023-03-26T11:28:26.111Z,36.17
2023-03-26T11:29:46.328Z,36.22
2023-03-26T11:31:26.740Z,35.21
2023-03-26T11:33:07.091Z,35.11
2023-03-26T11:34:16.576Z,34.44
2023-03-26T11:35:40.448Z,34.56
2023-03-26T11:36:53.773Z,35.77
2023-03-26T11:37:57.764Z,36.26
2023-03-26T11:39:04.407Z,36.62
2023-03-26T11:40:15.705Z,37.87
2023-03-26T11:41:27.758Z,38.65
2023-03-26T11:42:30.593Z,38.65
2023-03-26T11:43:35.816Z,37.24
2023-03-26T11:44:40.093Z,35.86
2023-03-26T11:45:45.917Z,34.67
2023-03-26T11:46:50.482Z,33.74
2023-03-26T11:48:12.836Z,33.49
2023-03-26T11:49:18.293Z,32.92
2023-03-26T11:50:28.727Z,32.75
2023-03-26T11:51:33.962Z,31.38
2023-03-26T11:52:37.117Z,30.92
2023-03-26T11:53:39.808Z,29.84
2023-03-26T11:54:43.745Z,28.75
2023-03-26T11:55:59.994Z,27.97
2023-03-26T11:57:16.808Z,27.76
2023-03-26T11:58:31.484Z,26.84
2023-03-26T11:59:56.663Z,26.31
2023-03-26T12:01:02.412Z,26.89
2023-03-26T12:02:04.779Z,26.32
2023-03-26T12:03:15.765Z,26.58
2023-03-26T12:04:40.472Z,26.31
2023-03-26T12:05:51.906Z,26.09
2023-03-26T12:06:59.806Z,26.04
2023-03-26T12:08:19.708Z,25.84
2023-03-26T12:09:22.712Z,25.85
2023-03-26T12:10:37.669Z,26.07
2023-03-26T12:11:41.394Z,27.60
2023-03-26T12:12:46.612Z,28.86
2023-03-26T12:13:53.710Z,29.05
2023-03-26T12:14:55.854Z,30.26
2023-03-26T12:16:09.368Z,29.95
2023-03-26T12:17:31.423Z,31.30
2023-03-26T12:18:34.317Z,31.76
2023-03-26T12:19:41.894Z,32.00
2023-03-26T12:20:45.062Z,32.70
2023-03-26T12:21:49.949Z,32.60
2023-03-26T12:22:59.106Z,32.97
2023-03-26T12:24:04.585Z,31.16
2023-03-26T12:25:32.020Z,27.53
2023-03-26T12:26:45.026Z,27.99
2023-03-26T12:27:55.753Z,28.05
2023-03-26T12:28:57.933Z,26.56
2023-03-26T12:30:30.905Z,28.17
2023-03-26T12:31:47.378Z,29.16
2023-03-26T12:32:53.278Z,28.79
2023-03-26T12:34:34.889Z,28.67
2023-03-26T12:35:37.161Z,26.35
2023-03-26T12:36:39.576Z,24.79
2023-03-26T12:37:43.559Z,24.51
2023-03-26T12:38:46.131Z,24.14
2023-03-26T12:40:34.334Z,26.22
2023-03-26T12:44:43.006Z,24.97
2023-03-26T12:44:56.210Z,23.57
2023-03-26T12:44:59.161Z,22.72
2023-03-26T12:47:45.799Z,21.99
2023-03-26T12:47:59.790Z,21.37
2023-03-26T12:48:56.856Z,22.66
2023-03-26T12:49:59.185Z,23.73
2023-03-26T12:51:13.876Z,25.89
2023-03-26T12:52:39.732Z,26.40
2023-03-26T12:53:57.865Z,25.92
2023-03-26T12:55:35.860Z,25.28
2023-03-26T12:57:12.453Z,24.44
2023-03-26T12:58:38.344Z,24.43
2023-03-26T13:00:10.939Z,25.45
2023-03-26T13:01:20.705Z,26.00
2023-03-26T13:02:44.738Z,25.15
2023-03-26T13:04:24.365Z,22.88
2023-03-26T13:05:47.761Z,24.55
2023-03-26T13:07:01.572Z,25.77
2023-03-26T13:09:00.530Z,25.89
2023-03-26T13:10:21.206Z,26.62
2023-03-26T13:11:47.756Z,27.03
2023-03-26T13:13:01.454Z,27.02
2023-03-26T13:14:12.626Z,27.01
2023-03-26T13:15:24.092Z,24.19
2023-03-26T13:16:40.021Z,23.88
2023-03-26T13:17:44.651Z,23.63
2023-03-26T13:19:17.387Z,23.90
2023-03-26T13:20:21.557Z,22.08
2023-03-26T13:21:36.088Z,21.40
2023-03-26T13:22:50.335Z,22.23
2023-03-26T13:24:01.423Z,22.01
2023-03-26T13:25:27.772Z,21.76
2023-03-26T13:26:36.183Z,22.08
2023-03-26T13:27:47.661Z,21.06
2023-03-26T13:28:56.531Z,21.08
2023-03-26T13:30:14.179Z,20.80
2023-03-26T13:31:29.252Z,20.62
2023-03-26T13:32:42.696Z,22.60
2023-03-26T13:34:23.222Z,23.64
2023-03-26T13:35:40.180Z,24.52
2023-03-26T13:36:56.781Z,25.01
2023-03-26T13:38:01.940Z,25.95
2023-03-26T13:39:08.175Z,26.23
2023-03-26T13:40:10.400Z,25.70
2023-03-26T13:41:41.617Z,23.83
2023-03-26T13:43:05.208Z,24.90
2023-03-26T13:44:27.933Z,25.99
2023-03-26T13:46:14.893Z,25.81
2023-03-26T13:47:20.964Z,24.69
2023-03-26T13:48:27.298Z,23.53
2023-03-26T13:49:37.162Z,22.53
2023-03-26T13:50:42.751Z,21.52
2023-03-26T13:51:58.228Z,20.72
2023-03-26T13:53:08.744Z,20.39
2023-03-26T13:54:21.977Z,21.36
2023-03-26T13:55:36.463Z,23.47
2023-03-26T13:56:43.489Z,24.45
2023-03-26T13:58:22.093Z,26.07
2023-03-26T13:59:36.889Z,26.56
2023-03-26T14:00:54.949Z,24.19
2023-03-26T14:02:02.496Z,24.21
2023-03-26T14:03:16.420Z,25.31
2023-03-26T14:04:37.890Z,26.62
2023-03-26T14:05:45.636Z,26.22
2023-03-26T14:07:12.406Z,26.81
2023-03-26T14:08:19.756Z,23.77
2023-03-26T14:09:30.781Z,23.65
2023-03-26T14:10:37.847Z,23.67
2023-03-26T14:11:52.474Z,24.55
2023-03-26T14:13:07.270Z,25.48
2023-03-26T14:14:16.494Z,22.01
2023-03-26T14:15:19.049Z,20.62
2023-03-26T14:16:33.398Z,19.17
2023-03-26T14:17:47.922Z,18.00
2023-03-26T14:19:10.872Z,20.07
2023-03-26T14:20:35.291Z,21.39
2023-03-26T14:22:00.569Z,22.54
2023-03-26T14:23:21.692Z,22.34
2023-03-26T14:24:31.497Z,21.37
2023-03-26T14:26:04.727Z,22.65
2023-03-26T14:27:22.012Z,21.63
2023-03-26T14:28:59.572Z,19.64
2023-03-26T14:30:23.792Z,22.24
2023-03-26T14:31:31.627Z,23.14
2023-03-26T14:33:12.396Z,23.46
2023-03-26T14:34:35.970Z,24.12
2023-03-26T14:35:38.639Z,23.61
2023-03-26T14:37:18.973Z,21.43
2023-03-26T14:38:52.726Z,20.67
2023-03-26T14:40:38.981Z,18.63
2023-03-26T14:41:57.210Z,18.35
2023-03-26T14:43:36.485Z,19.42
2023-03-26T14:45:10.137Z,19.33
2023-03-26T14:46:18.006Z,18.82
2023-03-26T14:47:24.886Z,18.78
2023-03-26T14:48:53.963Z,18.63
2023-03-26T14:50:36.268Z,18.04
2023-03-26T14:51:53.545Z,18.20
2023-03-26T14:53:01.364Z,17.11
2023-03-26T14:54:08.470Z,17.42
2023-03-26T14:55:19.206Z,17.64
2023-03-26T14:56:33.292Z,17.93
2023-03-26T14:57:38.603Z,19.04
2023-03-26T14:59:02.998Z,19.03
2023-03-26T15:00:27.726Z,19.17
2023-03-26T15:02:08.876Z,18.20
2023-03-26T15:03:39.333Z,18.05
2023-03-26T15:05:07.294Z,18.21
2023-03-26T15:06:24.368Z,18.46
2023-03-26T15:07:30.295Z,19.17
2023-03-26T15:09:25.201Z,18.87
2023-03-26T15:11:12.334Z,18.07
2023-03-26T15:12:26.258Z,17.76
2023-03-26T15:14:04.000Z,17.63